PWSweather.com
Personal Weather Stations
Station Observations
KMIEASTT1
Tawas Bay, East Tawas, MI 48730

Tawas BayEast Tawas, MI 48730

Lat: 44.28, Lon: -83.48

Elevation: 600

Station Type: Davis VantagePro

http://www.tawasbayweather.com

High Low Average
Temperature 67.1°F19.5°C 48.3°F9.1°C 53.0°F11.7°C
Dew Point 51.9°F11.1°C 33.4°F0.8°C 44.6°F7.0°C
Winds 31.0 mph 49.9 kmh Calm Calm 11.0 mph S17.7 kmh S
Wind Gusts 34.0 mph54.7 kmh 3.0 mph4.8 kmh 15.0 mph24.1 kmh
Humidity 92% 33% 76%
Pressure 29.99 in1015.6 mb 29.77 in1008.1 mb -
Precipitation 0.00 in0.0 mm - -
Hour Temp Dew Point Humidity Winds Wind Gusts Pressure Precip Precip Rate Daily Precip Total
12:00 AM 48.8°F9.3°C 43.6°F6.4°C 82% 6.0 mph E9.7 kmh E 8.0 mph12.9 kmh 29.99 in1015.6 mb 0.00 in0.0 mm 0.00 in/hr0.0 mm/hr 0.00 in0.0 mm
12:15 AM 48.8°F9.3°C 43.9°F6.6°C 83% 7.0 mph E11.3 kmh E 7.0 mph11.3 kmh 29.98 in1015.2 mb 0.00 in0.0 mm 0.00 in/hr0.0 mm/hr 0.00 in0.0 mm
12:30 AM 48.9°F9.4°C 44.0°F6.7°C 83% 6.0 mph E9.7 kmh E 7.0 mph11.3 kmh 29.97 in1014.9 mb 0.00 in0.0 mm 0.00 in/hr0.0 mm/hr 0.00 in0.0 mm
12:45 AM 48.8°F9.3°C 44.2°F6.8°C 84% 6.0 mph E9.7 kmh E 7.0 mph11.3 kmh 29.97 in1014.9 mb 0.00 in0.0 mm 0.00 in/hr0.0 mm/hr 0.00 in0.0 mm
01:01 AM 48.6°F9.2°C 44.0°F6.7°C 84% 7.0 mph ESE11.3 kmh ESE 10.0 mph16.1 kmh 29.96 in1014.6 mb 0.00 in0.0 mm 0.00 in/hr0.0 mm/hr 0.00 in0.0 mm
01:15 AM 48.6°F9.2°C 44.0°F6.7°C 84% 6.0 mph ESE9.7 kmh ESE 8.0 mph12.9 kmh 29.95 in1014.2 mb 0.00 in0.0 mm 0.00 in/hr0.0 mm/hr 0.00 in0.0 mm
01:30 AM 48.6°F9.2°C 44.0°F6.7°C 84% 6.0 mph E9.7 kmh E 7.0 mph11.3 kmh 29.94 in1013.9 mb 0.00 in0.0 mm 0.00 in/hr0.0 mm/hr 0.00 in0.0 mm
01:45 AM 48.3°F9.1°C 43.1°F6.2°C 82% Calm Calm 3.0 mph4.8 kmh 29.93 in1013.5 mb 0.00 in0.0 mm 0.00 in/hr0.0 mm/hr 0.00 in0.0 mm
02:00 AM 48.6°F9.2°C 42.7°F5.9°C 80% Calm Calm 3.0 mph4.8 kmh 29.93 in1013.5 mb 0.00 in0.0 mm 0.00 in/hr0.0 mm/hr 0.00 in0.0 mm
02:15 AM 50.2°F10.1°C 43.6°F6.4°C 78% 13.0 mph ESE20.9 kmh ESE 22.0 mph35.4 kmh 29.92 in1013.2 mb 0.00 in0.0 mm 0.00 in/hr0.0 mm/hr 0.00 in0.0 mm
02:30 AM 50.1°F10.1°C 43.9°F6.6°C 79% 8.0 mph SE12.9 kmh SE 13.0 mph20.9 kmh 29.91 in1012.9 mb 0.00 in0.0 mm 0.00 in/hr0.0 mm/hr 0.00 in0.0 mm
02:45 AM 50.5°F10.3°C 43.9°F6.6°C 78% 18.0 mph ESE29.0 kmh ESE 24.0 mph38.6 kmh 29.89 in1012.2 mb 0.00 in0.0 mm 0.00 in/hr0.0 mm/hr 0.00 in0.0 mm
03:01 AM 50.4°F10.2°C 43.8°F6.6°C 78% 20.0 mph ESE32.2 kmh ESE 24.0 mph38.6 kmh 29.88 in1011.9 mb 0.00 in0.0 mm 0.00 in/hr0.0 mm/hr 0.00 in0.0 mm
03:15 AM 50.1°F10.1°C 43.5°F6.4°C 78% 14.0 mph ESE22.5 kmh ESE 21.0 mph33.8 kmh 29.88 in1011.9 mb 0.00 in0.0 mm 0.00 in/hr0.0 mm/hr 0.00 in0.0 mm
03:30 AM 49.9°F9.9°C 43.7°F6.5°C 79% 16.0 mph ESE25.7 kmh ESE 21.0 mph33.8 kmh 29.88 in1011.9 mb 0.00 in0.0 mm 0.00 in/hr0.0 mm/hr 0.00 in0.0 mm
03:45 AM 49.8°F9.9°C 43.9°F6.6°C 80% 13.0 mph ESE20.9 kmh ESE 17.0 mph27.4 kmh 29.88 in1011.9 mb 0.00 in0.0 mm 0.00 in/hr0.0 mm/hr 0.00 in0.0 mm
04:00 AM 49.8°F9.9°C 43.9°F6.6°C 80% 12.0 mph SE19.3 kmh SE 16.0 mph25.7 kmh 29.87 in1011.5 mb 0.00 in0.0 mm 0.00 in/hr0.0 mm/hr 0.00 in0.0 mm
04:15 AM 49.6°F9.8°C 43.7°F6.5°C 80% 6.0 mph S9.7 kmh S 8.0 mph12.9 kmh 29.87 in1011.5 mb 0.00 in0.0 mm 0.00 in/hr0.0 mm/hr 0.00 in0.0 mm
04:30 AM 49.4°F9.7°C 43.5°F6.4°C 80% Calm Calm 8.0 mph12.9 kmh 29.87 in1011.5 mb 0.00 in0.0 mm 0.00 in/hr0.0 mm/hr 0.00 in0.0 mm
04:45 AM 49.9°F9.9°C 43.0°F6.1°C 77% 11.0 mph SE17.7 kmh SE 18.0 mph29.0 kmh 29.86 in1011.2 mb 0.00 in0.0 mm 0.00 in/hr0.0 mm/hr 0.00 in0.0 mm
05:01 AM 51.1°F10.6°C 43.5°F6.4°C 75% 14.0 mph S22.5 kmh S 17.0 mph27.4 kmh 29.86 in1011.2 mb 0.00 in0.0 mm 0.00 in/hr0.0 mm/hr 0.00 in0.0 mm
05:15 AM 51.1°F10.6°C 43.5°F6.4°C 75% 8.0 mph S12.9 kmh S 11.0 mph17.7 kmh 29.86 in1011.2 mb 0.00 in0.0 mm 0.00 in/hr0.0 mm/hr 0.00 in0.0 mm
05:30 AM 50.5°F10.3°C 43.9°F6.6°C 78% 6.0 mph S9.7 kmh S 7.0 mph11.3 kmh 29.86 in1011.2 mb 0.00 in0.0 mm 0.00 in/hr0.0 mm/hr 0.00 in0.0 mm
05:45 AM 51.0°F10.6°C 44.1°F6.7°C 77% 4.0 mph SSW6.4 kmh SSW 7.0 mph11.3 kmh 29.85 in1010.8 mb 0.00 in0.0 mm 0.00 in/hr0.0 mm/hr 0.00 in0.0 mm
06:01 AM 51.0°F10.6°C 44.1°F6.7°C 77% 7.0 mph SSE11.3 kmh SSE 9.0 mph14.5 kmh 29.85 in1010.8 mb 0.00 in0.0 mm 0.00 in/hr0.0 mm/hr 0.00 in0.0 mm
06:15 AM 50.7°F10.4°C 43.8°F6.6°C 77% 7.0 mph S11.3 kmh S 10.0 mph16.1 kmh 29.85 in1010.8 mb 0.00 in0.0 mm 0.00 in/hr0.0 mm/hr 0.00 in0.0 mm
06:30 AM 50.2°F10.1°C 44.0°F6.7°C 79% 10.0 mph S16.1 kmh S 11.0 mph17.7 kmh 29.86 in1011.2 mb 0.00 in0.0 mm 0.00 in/hr0.0 mm/hr 0.00 in0.0 mm
06:45 AM 50.8°F10.4°C 44.5°F6.9°C 79% 9.0 mph S14.5 kmh S 16.0 mph25.7 kmh 29.86 in1011.2 mb 0.00 in0.0 mm 0.00 in/hr0.0 mm/hr 0.00 in0.0 mm
07:01 AM 50.1°F10.1°C 44.5°F6.9°C 81% 6.0 mph S9.7 kmh S 8.0 mph12.9 kmh 29.87 in1011.5 mb 0.00 in0.0 mm 0.00 in/hr0.0 mm/hr 0.00 in0.0 mm
07:15 AM 49.9°F9.9°C 44.6°F7.0°C 82% 5.0 mph S8.0 kmh S 7.0 mph11.3 kmh 29.87 in1011.5 mb 0.00 in0.0 mm 0.00 in/hr0.0 mm/hr 0.00 in0.0 mm
07:30 AM 49.9°F9.9°C 45.0°F7.2°C 83% 6.0 mph S9.7 kmh S 14.0 mph22.5 kmh 29.86 in1011.2 mb 0.00 in0.0 mm 0.00 in/hr0.0 mm/hr 0.00 in0.0 mm
07:45 AM 50.2°F10.1°C 44.9°F7.2°C 82% 7.0 mph S11.3 kmh S 10.0 mph16.1 kmh 29.85 in1010.8 mb 0.00 in0.0 mm 0.00 in/hr0.0 mm/hr 0.00 in0.0 mm
08:00 AM 50.1°F10.1°C 44.8°F7.1°C 82% 7.0 mph S11.3 kmh S 8.0 mph12.9 kmh 29.85 in1010.8 mb 0.00 in0.0 mm 0.00 in/hr0.0 mm/hr 0.00 in0.0 mm
08:15 AM 49.9°F9.9°C 44.6°F7.0°C 82% 5.0 mph S8.0 kmh S 8.0 mph12.9 kmh 29.84 in1010.5 mb 0.00 in0.0 mm 0.00 in/hr0.0 mm/hr 0.00 in0.0 mm
08:30 AM 50.4°F10.2°C 45.1°F7.3°C 82% 6.0 mph S9.7 kmh S 10.0 mph16.1 kmh 29.85 in1010.8 mb 0.00 in0.0 mm 0.00 in/hr0.0 mm/hr 0.00 in0.0 mm
08:45 AM 50.1°F10.1°C 44.8°F7.1°C 82% 5.0 mph S8.0 kmh S 7.0 mph11.3 kmh 29.83 in1010.2 mb 0.00 in0.0 mm 0.00 in/hr0.0 mm/hr 0.00 in0.0 mm
09:01 AM 49.9°F9.9°C 45.3°F7.4°C 84% 5.0 mph WSW8.0 kmh WSW 8.0 mph12.9 kmh 29.83 in1010.2 mb 0.00 in0.0 mm 0.00 in/hr0.0 mm/hr 0.00 in0.0 mm
09:15 AM 50.7°F10.4°C 46.1°F7.8°C 84% 7.0 mph SSW11.3 kmh SSW 13.0 mph20.9 kmh 29.84 in1010.5 mb 0.00 in0.0 mm 0.00 in/hr0.0 mm/hr 0.00 in0.0 mm
09:31 AM 50.7°F10.4°C 46.4°F8.0°C 85% 6.0 mph SSW9.7 kmh SSW 8.0 mph12.9 kmh 29.83 in1010.2 mb 0.00 in0.0 mm 0.00 in/hr0.0 mm/hr 0.00 in0.0 mm
09:45 AM 50.7°F10.4°C 46.7°F8.2°C 86% 5.0 mph SW8.0 kmh SW 7.0 mph11.3 kmh 29.83 in1010.2 mb 0.00 in0.0 mm 0.00 in/hr0.0 mm/hr 0.00 in0.0 mm
10:01 AM 51.1°F10.6°C 47.7°F8.7°C 88% 8.0 mph SW12.9 kmh SW 8.0 mph12.9 kmh 29.83 in1010.2 mb 0.00 in0.0 mm 0.00 in/hr0.0 mm/hr 0.00 in0.0 mm
10:15 AM 51.4°F10.8°C 48.0°F8.9°C 88% 6.0 mph SW9.7 kmh SW 8.0 mph12.9 kmh 29.83 in1010.2 mb 0.00 in0.0 mm 0.00 in/hr0.0 mm/hr 0.00 in0.0 mm
10:31 AM 51.4°F10.8°C 48.0°F8.9°C 88% 6.0 mph SSW9.7 kmh SSW 9.0 mph14.5 kmh 29.84 in1010.5 mb 0.00 in0.0 mm 0.00 in/hr0.0 mm/hr 0.00 in0.0 mm
10:45 AM 51.1°F10.6°C 47.7°F8.7°C 88% 6.0 mph S9.7 kmh S 10.0 mph16.1 kmh 29.85 in1010.8 mb 0.00 in0.0 mm 0.00 in/hr0.0 mm/hr 0.00 in0.0 mm
11:01 AM 50.1°F10.1°C 47.0°F8.3°C 89% 5.0 mph S8.0 kmh S 8.0 mph12.9 kmh 29.85 in1010.8 mb 0.00 in0.0 mm 0.00 in/hr0.0 mm/hr 0.00 in0.0 mm
11:15 AM 49.8°F9.9°C 47.0°F8.3°C 90% 7.0 mph SSE11.3 kmh SSE 10.0 mph16.1 kmh 29.84 in1010.5 mb 0.00 in0.0 mm 0.00 in/hr0.0 mm/hr 0.00 in0.0 mm
11:31 AM 50.4°F10.2°C 47.9°F8.8°C 91% 11.0 mph SSW17.7 kmh SSW 12.0 mph19.3 kmh 29.84 in1010.5 mb 0.00 in0.0 mm 0.00 in/hr0.0 mm/hr 0.00 in0.0 mm
11:45 AM 50.4°F10.2°C 47.9°F8.8°C 91% 8.0 mph S12.9 kmh S 11.0 mph17.7 kmh 29.84 in1010.5 mb 0.00 in0.0 mm 0.00 in/hr0.0 mm/hr 0.00 in0.0 mm
12:01 PM 50.8°F10.4°C 48.6°F9.2°C 92% 7.0 mph S11.3 kmh S 11.0 mph17.7 kmh 29.84 in1010.5 mb 0.00 in0.0 mm 0.00 in/hr0.0 mm/hr 0.00 in0.0 mm
12:15 PM 51.0°F10.6°C 48.5°F9.2°C 91% 8.0 mph S12.9 kmh S 11.0 mph17.7 kmh 29.83 in1010.2 mb 0.00 in0.0 mm 0.00 in/hr0.0 mm/hr 0.00 in0.0 mm
12:30 PM 51.4°F10.8°C 49.2°F9.6°C 92% 8.0 mph SSE12.9 kmh SSE 12.0 mph19.3 kmh 29.83 in1010.2 mb 0.00 in0.0 mm 0.00 in/hr0.0 mm/hr 0.00 in0.0 mm
12:45 PM 52.5°F11.4°C 50.3°F10.2°C 92% 11.0 mph S17.7 kmh S 16.0 mph25.7 kmh 29.83 in1010.2 mb 0.00 in0.0 mm 0.00 in/hr0.0 mm/hr 0.00 in0.0 mm
01:02 PM 52.8°F11.6°C 50.5°F10.3°C 92% 12.0 mph S19.3 kmh S 16.0 mph25.7 kmh 29.82 in1009.8 mb 0.00 in0.0 mm 0.00 in/hr0.0 mm/hr 0.00 in0.0 mm
01:15 PM 52.8°F11.6°C 50.5°F10.3°C 92% 8.0 mph SSW12.9 kmh SSW 12.0 mph19.3 kmh 29.82 in1009.8 mb 0.00 in0.0 mm 0.00 in/hr0.0 mm/hr 0.00 in0.0 mm
01:30 PM 52.6°F11.4°C 50.1°F10.1°C 91% 11.0 mph S17.7 kmh S 14.0 mph22.5 kmh 29.80 in1009.1 mb 0.00 in0.0 mm 0.00 in/hr0.0 mm/hr 0.00 in0.0 mm
01:45 PM 53.1°F11.7°C 50.8°F10.4°C 92% 10.0 mph S16.1 kmh S 17.0 mph27.4 kmh 29.80 in1009.1 mb 0.00 in0.0 mm 0.00 in/hr0.0 mm/hr 0.00 in0.0 mm
02:01 PM 53.2°F11.8°C 50.7°F10.4°C 91% 10.0 mph SSW16.1 kmh SSW 12.0 mph19.3 kmh 29.81 in1009.5 mb 0.00 in0.0 mm 0.00 in/hr0.0 mm/hr 0.00 in0.0 mm
02:15 PM 53.6°F12.0°C 51.0°F10.6°C 91% 10.0 mph S16.1 kmh S 12.0 mph19.3 kmh 29.80 in1009.1 mb 0.00 in0.0 mm 0.00 in/hr0.0 mm/hr 0.00 in0.0 mm
02:30 PM 53.8°F12.1°C 50.9°F10.5°C 90% 12.0 mph S19.3 kmh S 15.0 mph24.1 kmh 29.79 in1008.8 mb 0.00 in0.0 mm 0.00 in/hr0.0 mm/hr 0.00 in0.0 mm
02:45 PM 54.2°F12.3°C 51.6°F10.9°C 91% 13.0 mph S20.9 kmh S 21.0 mph33.8 kmh 29.78 in1008.5 mb 0.00 in0.0 mm 0.00 in/hr0.0 mm/hr 0.00 in0.0 mm
03:02 PM 54.8°F12.7°C 51.9°F11.1°C 90% 21.0 mph S33.8 kmh S 25.0 mph40.2 kmh 29.77 in1008.1 mb 0.00 in0.0 mm 0.00 in/hr0.0 mm/hr 0.00 in0.0 mm
03:15 PM 54.4°F12.4°C 50.9°F10.5°C 88% 13.0 mph S20.9 kmh S 21.0 mph33.8 kmh 29.78 in1008.5 mb 0.00 in0.0 mm 0.00 in/hr0.0 mm/hr 0.00 in0.0 mm
03:31 PM 65.2°F18.4°C 40.3°F4.6°C 40% 20.0 mph SW32.2 kmh SW 34.0 mph54.7 kmh 29.78 in1008.5 mb 0.00 in0.0 mm 0.00 in/hr0.0 mm/hr 0.00 in0.0 mm
03:45 PM 67.1°F19.5°C 39.3°F4.1°C 36% 21.0 mph WSW33.8 kmh WSW 31.0 mph49.9 kmh 29.78 in1008.5 mb 0.00 in0.0 mm 0.00 in/hr0.0 mm/hr 0.00 in0.0 mm
04:01 PM 66.3°F19.1°C 38.6°F3.7°C 36% 17.0 mph WSW27.4 kmh WSW 27.0 mph43.5 kmh 29.78 in1008.5 mb 0.00 in0.0 mm 0.00 in/hr0.0 mm/hr 0.00 in0.0 mm
04:15 PM 65.2°F18.4°C 41.6°F5.3°C 42% 22.0 mph WSW35.4 kmh WSW 25.0 mph40.2 kmh 29.79 in1008.8 mb 0.00 in0.0 mm 0.00 in/hr0.0 mm/hr 0.00 in0.0 mm
04:31 PM 65.2°F18.4°C 37.6°F3.1°C 36% 20.0 mph WSW32.2 kmh WSW 33.0 mph53.1 kmh 29.81 in1009.5 mb 0.00 in0.0 mm 0.00 in/hr0.0 mm/hr 0.00 in0.0 mm
04:45 PM 65.5°F18.6°C 39.9°F4.4°C 39% 31.0 mph W49.9 kmh W 33.0 mph53.1 kmh 29.82 in1009.8 mb 0.00 in0.0 mm 0.00 in/hr0.0 mm/hr 0.00 in0.0 mm
05:01 PM 64.8°F18.2°C 35.1°F1.7°C 33% 26.0 mph SW41.8 kmh SW 31.0 mph49.9 kmh 29.83 in1010.2 mb 0.00 in0.0 mm 0.00 in/hr0.0 mm/hr 0.00 in0.0 mm
05:15 PM 64.5°F18.1°C 36.3°F2.4°C 35% 31.0 mph SW49.9 kmh SW 34.0 mph54.7 kmh 29.84 in1010.5 mb 0.00 in0.0 mm 0.00 in/hr0.0 mm/hr 0.00 in0.0 mm
05:31 PM 63.5°F17.5°C 37.5°F3.1°C 38% 21.0 mph WSW33.8 kmh WSW 29.0 mph46.7 kmh 29.84 in1010.5 mb 0.00 in0.0 mm 0.00 in/hr0.0 mm/hr 0.00 in0.0 mm
05:45 PM 62.9°F17.2°C 35.6°F2.0°C 36% 18.0 mph WSW29.0 kmh WSW 29.0 mph46.7 kmh 29.84 in1010.5 mb 0.00 in0.0 mm 0.00 in/hr0.0 mm/hr 0.00 in0.0 mm
06:01 PM 62.1°F16.7°C 33.4°F0.8°C 34% 21.0 mph SW33.8 kmh SW 30.0 mph48.3 kmh 29.85 in1010.8 mb 0.00 in0.0 mm 0.00 in/hr0.0 mm/hr 0.00 in0.0 mm
06:15 PM 61.6°F16.4°C 36.4°F2.4°C 39% 21.0 mph SW33.8 kmh SW 24.0 mph38.6 kmh 29.85 in1010.8 mb 0.00 in0.0 mm 0.00 in/hr0.0 mm/hr 0.00 in0.0 mm
06:30 PM 61.3°F16.3°C 36.2°F2.3°C 39% 20.0 mph SW32.2 kmh SW 25.0 mph40.2 kmh 29.86 in1011.2 mb 0.00 in0.0 mm 0.00 in/hr0.0 mm/hr 0.00 in0.0 mm
06:45 PM 61.2°F16.2°C 36.7°F2.6°C 40% 13.0 mph WSW20.9 kmh WSW 19.0 mph30.6 kmh 29.85 in1010.8 mb 0.00 in0.0 mm 0.00 in/hr0.0 mm/hr 0.00 in0.0 mm
07:01 PM 59.9°F15.5°C 40.7°F4.8°C 49% 13.0 mph SW20.9 kmh SW 16.0 mph25.7 kmh 29.87 in1011.5 mb 0.00 in0.0 mm 0.00 in/hr0.0 mm/hr 0.00 in0.0 mm
07:15 PM 58.6°F14.8°C 43.0°F6.1°C 56% 8.0 mph SW12.9 kmh SW 14.0 mph22.5 kmh 29.89 in1012.2 mb 0.00 in0.0 mm 0.00 in/hr0.0 mm/hr 0.00 in0.0 mm
07:30 PM 58.9°F14.9°C 41.3°F5.2°C 52% 16.0 mph WSW25.7 kmh WSW 16.0 mph25.7 kmh 29.90 in1012.5 mb 0.00 in0.0 mm 0.00 in/hr0.0 mm/hr 0.00 in0.0 mm
07:45 PM 58.9°F14.9°C 41.3°F5.2°C 52% 6.0 mph SW9.7 kmh SW 13.0 mph20.9 kmh 29.92 in1013.2 mb 0.00 in0.0 mm 0.00 in/hr0.0 mm/hr 0.00 in0.0 mm
08:00 PM 58.7°F14.8°C 38.5°F3.6°C 47% 11.0 mph SW17.7 kmh SW 17.0 mph27.4 kmh 29.93 in1013.5 mb 0.00 in0.0 mm 0.00 in/hr0.0 mm/hr 0.00 in0.0 mm
08:15 PM 58.3°F14.6°C 40.3°F4.6°C 51% 10.0 mph WSW16.1 kmh WSW 18.0 mph29.0 kmh 29.94 in1013.9 mb 0.00 in0.0 mm 0.00 in/hr0.0 mm/hr 0.00 in0.0 mm
08:30 PM 58.0°F14.4°C 37.9°F3.3°C 47% 8.0 mph W12.9 kmh W 13.0 mph20.9 kmh 29.95 in1014.2 mb 0.00 in0.0 mm 0.00 in/hr0.0 mm/hr 0.00 in0.0 mm
08:45 PM 58.3°F14.6°C 35.3°F1.8°C 42% 13.0 mph WSW20.9 kmh WSW 17.0 mph27.4 kmh 29.96 in1014.6 mb 0.00 in0.0 mm 0.00 in/hr0.0 mm/hr 0.00 in0.0 mm
09:01 PM 57.5°F14.2°C 35.2°F1.8°C 43% 4.0 mph W6.4 kmh W 10.0 mph16.1 kmh 29.96 in1014.6 mb 0.00 in0.0 mm 0.00 in/hr0.0 mm/hr 0.00 in0.0 mm
09:15 PM 56.9°F13.8°C 34.1°F1.2°C 42% 8.0 mph W12.9 kmh W 13.0 mph20.9 kmh 29.96 in1014.6 mb 0.00 in0.0 mm 0.00 in/hr0.0 mm/hr 0.00 in0.0 mm
09:30 PM 55.9°F13.3°C 34.3°F1.3°C 44% 1.0 mph WNW1.6 kmh WNW 8.0 mph12.9 kmh 29.99 in1015.6 mb 0.00 in0.0 mm 0.00 in/hr0.0 mm/hr 0.00 in0.0 mm
09:45 PM 55.1°F12.8°C 33.6°F0.9°C 44% 3.0 mph WNW4.8 kmh WNW 6.0 mph9.7 kmh 29.99 in1015.6 mb 0.00 in0.0 mm 0.00 in/hr0.0 mm/hr 0.00 in0.0 mm
10:00 PM 54.5°F12.5°C 33.1°F0.6°C 44% 7.0 mph WNW11.3 kmh WNW 12.0 mph19.3 kmh 29.99 in1015.6 mb 0.00 in0.0 mm 0.00 in/hr0.0 mm/hr 0.00 in0.0 mm
10:15 PM 54.1°F12.3°C 32.1°F0.1°C 43% 8.0 mph WNW12.9 kmh WNW 11.0 mph17.7 kmh 29.99 in1015.6 mb 0.00 in0.0 mm 0.00 in/hr0.0 mm/hr 0.00 in0.0 mm
10:31 PM 53.6°F12.0°C 33.3°F0.7°C 46% 3.0 mph W4.8 kmh W 6.0 mph9.7 kmh 30.00 in1015.9 mb 0.00 in0.0 mm 0.00 in/hr0.0 mm/hr 0.00 in0.0 mm
10:45 PM 52.9°F11.6°C 33.8°F1.0°C 48% 4.0 mph WNW6.4 kmh WNW 10.0 mph16.1 kmh 30.02 in1016.6 mb 0.00 in0.0 mm 0.00 in/hr0.0 mm/hr 0.00 in0.0 mm
11:01 PM 52.6°F11.4°C 33.5°F0.8°C 48% 5.0 mph WSW8.0 kmh WSW 11.0 mph17.7 kmh 30.02 in1016.6 mb 0.00 in0.0 mm 0.00 in/hr0.0 mm/hr 0.00 in0.0 mm
11:15 PM 52.3°F11.3°C 33.7°F0.9°C 49% 10.0 mph WSW16.1 kmh WSW 11.0 mph17.7 kmh 30.02 in1016.6 mb 0.00 in0.0 mm 0.00 in/hr0.0 mm/hr 0.00 in0.0 mm
11:30 PM 52.2°F11.2°C 34.6°F1.4°C 51% 7.0 mph WSW11.3 kmh WSW 11.0 mph17.7 kmh 30.03 in1016.9 mb 0.00 in0.0 mm 0.00 in/hr0.0 mm/hr 0.00 in0.0 mm
11:45 PM 51.9°F11.1°C 34.4°F1.3°C 51% 2.0 mph WNW3.2 kmh WNW 8.0 mph12.9 kmh 30.03 in1016.9 mb 0.00 in0.0 mm 0.00 in/hr0.0 mm/hr 0.00 in0.0 mm